Time;durP1;ratioP1;P1;durP2;ratioP2;P2;SDS_P1;SDS_P2;PMS_P1;PMS_P2;Temp;Humidity;BMP_temperature;BMP_pressure;BME280_temperature;BME280_humidity;BME280_pressure;Samples;Min_cycle;Max_cycle;Signal;HPM_P1;HPM_P2
2022/09/17 00:00:33;;;;;;;7.57;2.90;;;;;;;22.13;44.63;100576.16;2077472;28;20041;-76
2022/09/17 00:01:57;;;;;;;7.75;3.08;;;;;;;22.09;44.64;100570.03;2091141;28;20045;-76
2022/09/17 00:03:18;;;;;;;6.07;3.60;;;;;;;22.04;44.66;100572.00;2087857;28;20098;-76
2022/09/17 00:04:40;;;;;;;5.32;2.50;;;;;;;21.98;44.81;100577.59;2101565;28;20105;-76
2022/09/17 00:06:06;;;;;;;6.40;2.80;;;;;;;21.94;45.04;100575.88;2096007;28;20048;-76
2022/09/17 00:07:29;;;;;;;4.97;2.53;;;;;;;21.94;45.01;100580.38;2087766;28;20075;-76
2022/09/17 00:08:52;;;;;;;7.07;2.90;;;;;;;21.97;45.06;100581.19;2093682;28;20040;-78
2022/09/17 00:10:13;;;;;;;6.18;3.53;;;;;;;21.98;45.03;100574.03;2096434;28;20045;-76
2022/09/17 00:11:38;;;;;;;4.10;2.72;;;;;;;21.95;45.14;100574.06;2085457;28;20045;-77
2022/09/17 00:12:59;;;;;;;5.07;2.53;;;;;;;21.87;45.14;100575.22;2094166;28;20048;-76
2022/09/17 00:14:23;;;;;;;5.38;2.72;;;;;;;21.72;45.67;100573.06;2093623;28;20068;-75
2022/09/17 00:15:45;;;;;;;4.28;2.55;;;;;;;21.56;46.13;100576.28;2085602;28;20049;-77
2022/09/17 00:17:08;;;;;;;4.82;2.85;;;;;;;21.53;46.16;100565.66;2083163;28;20049;-77
2022/09/17 00:18:29;;;;;;;6.35;4.13;;;;;;;21.59;45.92;100566.34;2091102;28;20049;-75
2022/09/17 00:19:52;;;;;;;5.70;3.05;;;;;;;21.68;45.64;100562.44;2085196;28;20033;-77
2022/09/17 00:21:15;;;;;;;6.45;3.38;;;;;;;21.81;45.28;100569.16;2091098;28;20088;-75
2022/09/17 00:22:38;;;;;;;5.65;2.95;;;;;;;21.88;45.15;100574.28;2093648;28;20075;-77
2022/09/17 00:24:03;;;;;;;7.07;2.45;;;;;;;21.89;44.98;100567.09;2093685;28;20054;-75
2022/09/17 00:25:24;;;;;;;6.50;3.15;;;;;;;21.88;44.95;100562.66;2085545;28;20559;-76
2022/09/17 00:26:47;;;;;;;3.80;2.85;;;;;;;21.89;44.99;100553.66;2090649;28;20141;-75
2022/09/17 00:28:09;;;;;;;5.00;2.92;;;;;;;21.94;44.69;100559.75;2085205;28;20091;-75
2022/09/17 00:29:33;;;;;;;4.90;2.95;;;;;;;22.01;44.53;100565.84;2091143;28;20710;-76
2022/09/17 00:30:56;;;;;;;5.28;2.78;;;;;;;22.00;44.50;100558.69;2093647;28;20079;-76
2022/09/17 00:32:18;;;;;;;5.25;2.95;;;;;;;22.00;44.64;100562.25;2085218;28;20509;-76
2022/09/17 00:33:40;;;;;;;5.15;2.70;;;;;;;21.99;44.73;100556.97;2090562;28;20122;-76
2022/09/17 00:35:02;;;;;;;4.05;2.83;;;;;;;21.98;44.36;100561.47;2096054;28;20040;-76
2022/09/17 00:36:23;;;;;;;5.07;3.00;;;;;;;21.99;44.60;100565.03;2093372;28;20442;-76
2022/09/17 00:37:46;;;;;;;9.23;3.17;;;;;;;21.98;44.54;100561.47;2077014;28;20057;-76
2022/09/17 00:39:09;;;;;;;6.28;3.05;;;;;;;21.96;44.59;100557.94;2088034;28;20049;-76
2022/09/17 00:40:32;;;;;;;7.90;3.75;;;;;;;21.93;44.71;100560.69;2085084;28;20057;-76
2022/09/17 00:41:56;;;;;;;8.20;3.25;;;;;;;21.84;45.13;100559.22;2093615;28;20094;-77
2022/09/17 00:43:36;;;;;;;11.70;3.40;;;;;;;21.76;45.36;100561.25;2093647;28;20047;-76
2022/09/17 00:45:01;;;;;;;6.88;3.15;;;;;;;21.71;45.44;100555.16;2087864;28;20041;-77
2022/09/17 00:46:32;;;;;;;7.45;3.55;;;;;;;21.72;45.37;100554.25;2085384;28;20057;-77
2022/09/17 00:47:57;;;;;;;6.28;3.40;;;;;;;21.70;45.50;100549.84;2093056;28;20139;-76
2022/09/17 00:49:24;;;;;;;6.38;3.28;;;;;;;21.65;45.84;100557.19;2085701;28;20655;-76
2022/09/17 00:50:46;;;;;;;5.70;3.08;;;;;;;21.52;46.29;100564.78;2084206;28;20048;-76
2022/09/17 00:52:11;;;;;;;7.30;3.17;;;;;;;21.28;46.90;100557.47;2082791;28;20049;-76
2022/09/17 00:53:33;;;;;;;5.60;3.13;;;;;;;21.05;47.79;100561.75;2091569;28;20044;-76
2022/09/17 00:55:01;;;;;;;6.03;3.15;;;;;;;20.83;48.47;100565.97;2093536;28;20056;-75
2022/09/17 00:56:27;;;;;;;6.57;3.08;;;;;;;20.64;49.18;100564.75;2096026;28;20067;-76
2022/09/17 00:57:51;;;;;;;5.47;3.03;;;;;;;20.48;49.73;100558.94;2093619;28;20041;-76
2022/09/17 00:59:15;;;;;;;6.72;3.13;;;;;;;20.34;50.25;100563.84;2085538;28;20136;-76
2022/09/17 01:00:39;;;;;;;6.07;3.25;;;;;;;20.20;51.12;100574.03;2094998;28;20080;-76
2022/09/17 01:02:02;;;;;;;6.80;3.47;;;;;;;20.06;51.59;100570.81;2093960;28;20492;-76
2022/09/17 01:03:25;;;;;;;5.78;3.22;;;;;;;19.96;52.09;100564.81;2086396;28;20616;-76
2022/09/17 01:04:46;;;;;;;6.43;2.83;;;;;;;19.87;52.33;100565.06;2086406;28;20037;-76
2022/09/17 01:06:17;;;;;;;5.50;3.78;;;;;;;19.78;52.90;100562.63;2069581;28;20060;-76
2022/09/17 01:08:01;;;;;;;6.43;3.78;;;;;;;19.69;53.17;100563.72;2100949;28;20063;-76
2022/09/17 01:09:34;;;;;;;6.47;3.70;;;;;;;19.63;53.49;100566.53;2088932;28;20055;-76
2022/09/17 01:11:15;;;;;;;8.27;3.85;;;;;;;19.62;53.92;100569.28;2104636;28;20770;-76
2022/09/17 01:12:49;;;;;;;8.27;3.45;;;;;;;19.70;53.60;100560.13;2088946;28;20082;-76
2022/09/17 01:14:24;;;;;;;7.57;3.65;;;;;;;19.86;52.91;100558.81;2104169;28;20052;-75
2022/09/17 01:15:57;;;;;;;7.70;3.65;;;;;;;20.02;52.34;100571.84;2081014;28;20048;-76
2022/09/17 01:17:22;;;;;;;;;;;;;;;20.05;52.00;100559.22;2087955;28;20098;-76
2022/09/17 01:18:56;;;;;;;7.90;3.67;;;;;;;20.01;52.30;100562.91;2103167;28;19985;-77
2022/09/17 01:21:01;;;;;;;5.75;3.25;;;;;;;19.91;52.92;100558.69;2081494;28;20061;-76
2022/09/17 01:22:32;;;;;;;5.60;3.30;;;;;;;19.83;52.90;100558.91;2071897;28;20168;-77
2022/09/17 01:24:35;;;;;;;5.50;3.38;;;;;;;19.86;52.70;100553.47;2077496;28;20048;-77
2022/09/17 01:26:17;;;;;;;9.25;3.60;;;;;;;19.92;52.44;100546.19;2080650;28;20523;-75
2022/09/17 01:27:53;;;;;;;;;;;;;;;19.91;52.34;100556.03;2105796;28;20043;-76
2022/09/17 01:29:30;;;;;;;6.72;4.15;;;;;;;19.84;52.76;100557.09;2088917;28;19921;-77
2022/09/17 01:31:04;;;;;;;7.50;3.90;;;;;;;19.81;52.91;100554.50;2088056;28;20041;-77
2022/09/17 01:32:33;;;;;;;6.15;3.60;;;;;;;19.80;52.97;100553.63;2087484;28;20050;-76
2022/09/17 01:34:04;;;;;;;5.68;3.13;;;;;;;19.80;53.06;100552.75;2079086;28;20091;-76
2022/09/17 01:35:35;;;;;;;9.98;3.25;;;;;;;19.75;53.19;100552.88;2079641;28;20134;-76
2022/09/17 01:37:04;;;;;;;7.25;3.42;;;;;;;19.68;53.25;100553.94;2085430;28;20072;-76
2022/09/17 01:38:30;;;;;;;6.32;4.00;;;;;;;19.62;53.53;100563.94;2095134;28;20429;-76
2022/09/17 01:40:01;;;;;;;8.60;3.40;;;;;;;19.57;53.84;100553.31;2105023;28;20051;-76
2022/09/17 01:41:31;;;;;;;6.22;3.90;;;;;;;19.55;53.77;100557.84;2098355;28;20049;-76
2022/09/17 01:43:00;;;;;;;5.55;3.55;;;;;;;19.56;53.72;100554.22;2088544;28;20516;-75
2022/09/17 01:44:30;;;;;;;6.82;3.47;;;;;;;19.62;53.82;100554.09;2080219;28;20057;-76
2022/09/17 01:45:54;;;;;;;7.85;3.63;;;;;;;19.63;53.81;100553.16;2076876;28;20471;-76
2022/09/17 01:47:22;;;;;;;6.35;3.63;;;;;;;19.70;53.63;100553.88;2092467;28;20055;-76
2022/09/17 01:48:49;;;;;;;5.05;3.22;;;;;;;19.74;53.43;100553.78;2096860;28;20040;-76
2022/09/17 01:50:16;;;;;;;9.80;3.40;;;;;;;19.76;53.44;100554.59;2104961;28;20154;-76
2022/09/17 01:51:41;;;;;;;7.03;4.05;;;;;;;19.72;53.60;100555.63;2090368;28;20098;-76
2022/09/17 01:53:05;;;;;;;7.97;3.60;;;;;;;19.69;53.58;100544.97;2096813;28;20164;-76
2022/09/17 01:54:31;;;;;;;5.35;3.95;;;;;;;19.66;53.83;100537.03;2088418;28;20091;-76
2022/09/17 01:55:56;;;;;;;5.53;3.70;;;;;;;19.64;53.87;100546.88;2094568;28;20048;-76
2022/09/17 01:57:22;;;;;;;8.68;4.03;;;;;;;19.62;54.03;100546.06;2080060;28;20041;-76
2022/09/17 01:58:50;;;;;;;5.90;3.38;;;;;;;19.61;54.10;100541.63;2076219;28;20572;-76
2022/09/17 02:00:15;;;;;;;7.82;3.80;;;;;;;19.62;54.11;100539.81;2084211;28;20102;-76
2022/09/17 02:01:41;;;;;;;6.93;3.70;;;;;;;19.62;54.22;100547.88;2086239;28;20059;-76
2022/09/17 02:03:09;;;;;;;5.35;3.10;;;;;;;19.58;54.16;100540.81;2094489;28;20037;-75
2022/09/17 02:04:36;;;;;;;4.90;3.30;;;;;;;19.55;54.43;100540.91;2094705;28;20111;-76
2022/09/17 02:06:01;;;;;;;5.45;3.63;;;;;;;19.54;54.21;100540.00;2094740;28;20036;-76
2022/09/17 02:07:24;;;;;;;7.20;3.70;;;;;;;19.54;54.42;100542.69;2094432;28;20068;-76
2022/09/17 02:08:51;;;;;;;5.97;4.15;;;;;;;19.55;54.42;100535.53;2094039;28;20041;-77
2022/09/17 02:10:17;;;;;;;7.40;4.03;;;;;;;19.57;54.15;100529.22;2086386;28;20052;-75
2022/09/17 02:11:43;;;;;;;6.97;3.38;;;;;;;19.62;54.00;100538.03;2084082;28;20974;-75
2022/09/17 02:13:11;;;;;;;5.90;3.10;;;;;;;19.67;53.96;100540.59;2092583;28;20093;-75
2022/09/17 02:14:38;;;;;;;4.93;3.42;;;;;;;19.67;53.78;100541.47;2094565;28;20052;-75
2022/09/17 02:16:06;;;;;;;8.40;3.90;;;;;;;19.71;53.86;100536.91;2094896;28;20583;-75
2022/09/17 02:17:33;;;;;;;5.60;3.35;;;;;;;19.69;54.05;100534.25;2088324;28;20052;-75
2022/09/17 02:19:06;;;;;;;5.18;3.40;;;;;;;19.67;53.97;100545.94;2085725;28;20048;-75
2022/09/17 02:20:36;;;;;;;5.40;3.33;;;;;;;19.61;54.16;100533.59;2087048;28;20094;-75
2022/09/17 02:22:02;;;;;;;7.55;3.90;;;;;;;19.56;54.39;100535.47;2093366;28;20040;-75
2022/09/17 02:23:29;;;;;;;5.18;3.00;;;;;;;19.51;54.49;100545.44;2085935;28;20047;-75
2022/09/17 02:25:05;;;;;;;7.13;3.50;;;;;;;19.44;54.66;100541.09;2084441;28;20111;-75
2022/09/17 02:26:27;;;;;;;6.75;4.00;;;;;;;19.39;54.63;100543.03;2087568;28;20052;-76
2022/09/17 02:27:58;;;;;;;6.05;4.10;;;;;;;19.36;54.72;100545.78;2094139;28;20143;-75
2022/09/17 02:29:26;;;;;;;7.97;3.40;;;;;;;19.35;54.71;100542.22;2094985;28;20143;-75
2022/09/17 02:30:50;;;;;;;6.55;3.53;;;;;;;19.34;55.01;100547.59;2086451;28;20061;-76
2022/09/17 02:32:13;;;;;;;5.57;3.25;;;;;;;19.30;55.01;100545.91;2083409;28;20097;-75
2022/09/17 02:33:39;;;;;;;4.82;3.30;;;;;;;19.25;54.93;100546.03;2083379;28;20083;-75
2022/09/17 02:35:03;;;;;;;7.75;3.40;;;;;;;19.20;55.18;100541.69;2092064;28;20052;-76
2022/09/17 02:36:25;;;;;;;8.70;3.80;;;;;;;19.19;55.40;100550.63;2085885;28;20511;-76
2022/09/17 02:37:47;;;;;;;;;;;;;;;19.16;55.24;100543.56;2094288;28;20060;-76
2022/09/17 02:39:08;;;;;;;7.18;3.92;;;;;;;19.14;55.25;100549.88;2093735;28;19920;-76
2022/09/17 02:40:36;;;;;;;8.00;3.80;;;;;;;19.17;55.55;100549.78;2085270;28;20087;-77
2022/09/17 02:42:14;;;;;;;8.40;3.67;;;;;;;19.21;55.43;100543.47;2094315;28;20205;-77
2022/09/17 02:43:47;;;;;;;4.68;3.22;;;;;;;19.28;55.14;100553.13;2087539;28;20083;-78
2022/09/17 02:45:22;;;;;;;5.65;3.28;;;;;;;19.31;55.01;100542.31;2086921;28;20048;-78
2022/09/17 02:47:18;;;;;;;7.65;3.88;;;;;;;19.33;54.96;100549.41;2094324;28;20506;-78
2022/09/17 02:48:55;;;;;;;7.75;3.90;;;;;;;19.36;54.82;100554.66;2096154;28;20347;-78
2022/09/17 02:50:36;;;;;;;8.20;4.07;;;;;;;19.37;55.04;100556.44;2087512;28;20485;-79
2022/09/17 02:52:06;;;;;;;5.95;3.97;;;;;;;19.37;55.00;100556.44;2096328;28;20504;-79
2022/09/17 02:53:38;;;;;;;7.22;3.72;;;;;;;19.41;54.95;100549.22;2094893;28;20102;-79
2022/09/17 02:55:12;;;;;;;6.85;3.90;;;;;;;19.46;54.68;100544.66;2088001;28;20049;-75
2022/09/17 02:56:45;;;;;;;7.38;3.65;;;;;;;19.50;54.40;100551.69;2085733;28;20049;-75
2022/09/17 02:58:16;;;;;;;7.70;3.58;;;;;;;19.45;54.40;100548.22;2093874;28;20135;-75
2022/09/17 02:59:47;;;;;;;5.78;3.40;;;;;;;19.39;54.67;100543.91;2094924;28;20078;-76
2022/09/17 03:01:13;;;;;;;6.85;3.72;;;;;;;19.37;54.51;100547.53;2086066;28;20041;-75
2022/09/17 03:02:40;;;;;;;7.95;3.78;;;;;;;19.33;54.58;100543.16;2094021;28;20523;-75
2022/09/17 03:04:06;;;;;;;8.07;3.50;;;;;;;19.30;54.46;100543.22;2093998;28;20049;-75
2022/09/17 03:05:31;;;;;;;5.88;3.15;;;;;;;19.27;54.48;100546.00;2085668;28;20378;-76
2022/09/17 03:06:52;;;;;;;9.40;3.70;;;;;;;19.24;54.44;100541.56;2091482;28;20043;-75
2022/09/17 03:08:17;;;;;;;6.18;3.30;;;;;;;19.25;54.58;100543.34;2085093;28;20096;-76
2022/09/17 03:09:42;;;;;;;9.20;3.50;;;;;;;19.23;54.67;100539.81;2085564;28;20060;-76
2022/09/17 03:11:05;;;;;;;5.57;3.00;;;;;;;19.20;54.80;100533.66;2091861;28;20665;-76
2022/09/17 03:12:28;;;;;;;8.23;3.20;;;;;;;19.15;54.94;100530.22;2093799;28;20040;-76
2022/09/17 03:13:50;;;;;;;7.55;3.97;;;;;;;19.13;54.88;100542.75;2085411;28;20471;-76
2022/09/17 03:15:12;;;;;;;5.60;3.50;;;;;;;19.11;55.11;100534.75;2090633;28;20053;-76
2022/09/17 03:16:35;;;;;;;8.73;3.63;;;;;;;19.11;55.20;100535.63;2093633;28;20512;-76
2022/09/17 03:17:57;;;;;;;5.88;3.38;;;;;;;19.10;55.22;100533.88;2093517;28;20052;-75
2022/09/17 03:19:19;;;;;;;7.18;3.35;;;;;;;19.08;55.30;100537.50;2093705;28;20126;-76
2022/09/17 03:20:43;;;;;;;4.10;2.97;;;;;;;19.06;55.51;100536.66;2085373;28;20168;-76
2022/09/17 03:22:04;;;;;;;8.32;3.50;;;;;;;19.01;55.46;100536.78;2082232;28;20114;-76
2022/09/17 03:23:28;;;;;;;8.02;3.63;;;;;;;18.97;55.72;100529.72;2093408;28;20133;-75
2022/09/17 03:24:49;;;;;;;5.30;3.45;;;;;;;18.97;55.56;100537.72;2085428;28;20568;-76
2022/09/17 03:26:12;;;;;;;5.72;3.25;;;;;;;19.04;55.36;100542.03;2087696;28;20534;-76
2022/09/17 03:27:34;;;;;;;8.52;3.88;;;;;;;19.12;55.30;100536.50;2091063;28;20048;-76
2022/09/17 03:28:57;;;;;;;8.55;3.80;;;;;;;19.20;55.09;100533.66;2093094;28;20048;-76
2022/09/17 03:30:19;;;;;;;5.78;3.22;;;;;;;19.25;54.96;100537.09;2093282;28;20098;-76
2022/09/17 03:31:41;;;;;;;6.60;4.00;;;;;;;19.32;54.86;100538.72;2093301;28;20059;-75
2022/09/17 03:33:04;;;;;;;6.85;3.97;;;;;;;19.35;54.62;100538.66;2085174;28;20044;-76
2022/09/17 03:34:27;;;;;;;8.02;3.58;;;;;;;19.31;55.04;100536.97;2090777;28;20524;-76
2022/09/17 03:35:49;;;;;;;5.82;3.53;;;;;;;19.29;55.04;100536.13;2093205;28;20045;-75
2022/09/17 03:37:12;;;;;;;6.75;3.85;;;;;;;19.27;55.05;100530.81;2087768;28;20057;-76
2022/09/17 03:38:33;;;;;;;6.03;3.60;;;;;;;19.31;55.02;100534.28;2084718;28;20455;-75
2022/09/17 03:39:56;;;;;;;8.77;3.90;;;;;;;19.35;54.70;100533.31;2090781;28;20076;-76
2022/09/17 03:41:17;;;;;;;11.02;3.92;;;;;;;19.38;54.39;100534.09;2093471;28;20117;-75
2022/09/17 03:42:40;;;;;;;8.93;3.80;;;;;;;19.44;54.17;100536.63;2093032;28;20056;-76
2022/09/17 03:44:03;;;;;;;8.57;3.97;;;;;;;19.48;54.11;100538.38;2095836;28;20370;-76
2022/09/17 03:45:24;;;;;;;6.60;3.50;;;;;;;19.50;53.88;100536.50;2093304;28;20060;-76
2022/09/17 03:46:47;;;;;;;7.03;4.38;;;;;;;19.50;54.08;100535.63;2084850;28;20044;-76
2022/09/17 03:48:08;;;;;;;7.50;4.07;;;;;;;19.50;54.02;100549.91;2090642;28;20076;-76
2022/09/17 03:49:31;;;;;;;9.25;3.60;;;;;;;19.52;53.88;100549.00;2084723;28;20056;-76
2022/09/17 03:50:54;;;;;;;7.03;4.00;;;;;;;19.51;54.07;100542.75;2090721;28;20097;-75
2022/09/17 03:52:16;;;;;;;6.93;4.00;;;;;;;19.47;54.04;100546.44;2093078;28;20056;-76
2022/09/17 03:53:39;;;;;;;6.15;3.50;;;;;;;19.39;54.30;100548.38;2084793;28;20564;-75
2022/09/17 03:55:00;;;;;;;9.10;3.80;;;;;;;19.30;54.61;100543.22;2093305;28;20052;-75
2022/09/17 03:56:22;;;;;;;5.95;3.33;;;;;;;19.19;54.86;100546.16;2084873;28;20049;-76
2022/09/17 03:57:44;;;;;;;5.97;2.92;;;;;;;19.11;55.17;100542.78;2090482;28;20053;-76
2022/09/17 03:59:07;;;;;;;6.30;3.58;;;;;;;19.09;55.24;100534.81;2085007;28;20114;-76
2022/09/17 04:00:28;;;;;;;7.32;3.22;;;;;;;19.12;55.13;100544.53;2090902;28;20053;-75
2022/09/17 04:01:51;;;;;;;7.32;3.47;;;;;;;19.15;55.11;100538.25;2093000;28;20687;-76
2022/09/17 04:03:13;;;;;;;10.23;3.55;;;;;;;19.11;54.98;100532.94;2093424;28;20497;-75
2022/09/17 04:04:36;;;;;;;5.55;3.42;;;;;;;19.09;55.06;100541.97;2092979;28;20040;-76
2022/09/17 04:05:58;;;;;;;6.60;3.50;;;;;;;19.10;55.24;100536.53;2084779;28;20045;-76
2022/09/17 04:07:21;;;;;;;6.72;3.80;;;;;;;19.14;55.11;100540.03;2090797;28;20111;-76
2022/09/17 04:08:42;;;;;;;7.50;3.40;;;;;;;19.16;55.19;100534.66;2084805;28;20403;-75
2022/09/17 04:10:06;;;;;;;10.13;3.85;;;;;;;19.14;55.23;100534.69;2084670;28;20044;-75
2022/09/17 04:11:27;;;;;;;6.07;3.53;;;;;;;19.10;55.27;100539.22;2076704;28;20042;-75
2022/09/17 04:12:50;;;;;;;6.82;3.60;;;;;;;19.07;55.45;100541.97;2090561;28;20056;-76
2022/09/17 04:14:11;;;;;;;7.75;3.33;;;;;;;19.07;55.46;100544.66;2084794;28;20135;-76
2022/09/17 04:15:33;;;;;;;5.97;3.42;;;;;;;19.08;55.53;100543.75;2082397;28;20481;-75
2022/09/17 04:16:56;;;;;;;6.18;3.80;;;;;;;19.07;55.58;100541.97;2090759;28;20044;-76
2022/09/17 04:18:17;;;;;;;5.90;3.70;;;;;;;19.06;55.59;100542.88;2084662;28;20219;-76
2022/09/17 04:19:39;;;;;;;9.35;3.75;;;;;;;19.03;55.76;100548.28;2084919;28;20045;-76
2022/09/17 04:21:02;;;;;;;10.85;3.65;;;;;;;18.99;55.58;100546.63;2082533;28;20048;-76
2022/09/17 04:22:25;;;;;;;6.65;3.33;;;;;;;18.97;56.03;100542.22;2090716;28;20048;-76
2022/09/17 04:23:46;;;;;;;9.25;3.20;;;;;;;19.02;55.91;100549.25;2093367;28;20052;-76
2022/09/17 04:25:10;;;;;;;4.78;2.85;;;;;;;19.10;56.11;100543.69;2092889;28;20056;-76
2022/09/17 04:26:31;;;;;;;8.85;3.22;;;;;;;19.22;56.13;100547.91;2093398;28;20053;-76
2022/09/17 04:27:54;;;;;;;5.25;2.95;;;;;;;19.32;55.90;100547.63;2084948;28;20130;-76
2022/09/17 04:29:17;;;;;;;6.03;2.70;;;;;;;19.45;55.47;100545.53;2090774;28;20459;-75
2022/09/17 04:30:41;;;;;;;7.20;3.20;;;;;;;19.58;55.31;100547.03;2093358;28;20044;-76
2022/09/17 04:32:03;;;;;;;5.78;3.13;;;;;;;19.74;55.29;100542.19;2093401;28;20075;-76
2022/09/17 04:33:25;;;;;;;7.95;3.45;;;;;;;19.90;54.80;100544.41;2084970;28;20122;-76
2022/09/17 04:34:48;;;;;;;7.63;3.42;;;;;;;20.09;54.35;100549.28;2084159;28;20128;-75
2022/09/17 04:36:11;;;;;;;6.70;3.03;;;;;;;20.31;54.03;100542.44;2092494;28;20052;-76
2022/09/17 04:37:34;;;;;;;7.72;3.30;;;;;;;20.50;54.11;100546.38;2094704;28;20052;-76
2022/09/17 04:38:55;;;;;;;5.47;3.03;;;;;;;20.71;53.53;100541.31;2086280;28;20045;-76
2022/09/17 04:40:18;;;;;;;5.32;3.28;;;;;;;20.92;53.30;100546.06;2089317;28;20048;-76
2022/09/17 04:41:40;;;;;;;7.45;3.10;;;;;;;21.12;53.00;100546.31;2092529;28;20056;-76
2022/09/17 04:43:03;;;;;;;8.75;3.28;;;;;;;21.30;52.69;100542.22;2094626;28;20061;-76
2022/09/17 04:44:25;;;;;;;6.70;3.13;;;;;;;21.48;52.43;100544.28;2094463;28;20171;-75
2022/09/17 04:45:49;;;;;;;7.15;3.25;;;;;;;21.66;52.14;100542.81;2094334;28;20060;-77
2022/09/17 04:47:11;;;;;;;6.47;2.92;;;;;;;21.83;51.58;100538.63;2094784;28;20040;-77
2022/09/17 04:48:34;;;;;;;5.32;2.75;;;;;;;22.05;50.98;100548.69;2094420;28;20087;-76
2022/09/17 04:49:55;;;;;;;6.07;3.25;;;;;;;22.23;50.55;100546.22;2086267;28;20098;-76
2022/09/17 04:51:19;;;;;;;6.50;2.58;;;;;;;22.41;49.96;100541.97;2091732;28;20140;-76
2022/09/17 04:52:42;;;;;;;5.03;2.97;;;;;;;22.56;49.90;100537.84;2094422;28;20041;-77
2022/09/17 04:54:06;;;;;;;4.32;2.38;;;;;;;22.73;49.92;100539.91;2094640;28;20037;-75
2022/09/17 04:55:27;;;;;;;6.40;3.22;;;;;;;22.88;49.83;100534.84;2086317;28;20053;-76
2022/09/17 04:56:50;;;;;;;5.65;2.50;;;;;;;23.01;49.65;100536.13;2091744;28;20562;-76
2022/09/17 04:58:13;;;;;;;3.60;2.13;;;;;;;23.14;49.25;100532.94;2086031;28;20146;-75
2022/09/17 04:59:34;;;;;;;3.60;2.60;;;;;;;23.28;48.84;100535.97;2092285;28;20064;-76
2022/09/17 05:00:56;;;;;;;6.40;2.72;;;;;;;23.40;48.52;100530.94;2086243;28;20761;-76
2022/09/17 05:02:19;;;;;;;5.32;2.75;;;;;;;23.53;48.13;100531.34;2086198;28;20045;-76
2022/09/17 05:03:41;;;;;;;4.28;2.30;;;;;;;23.68;48.01;100533.41;2091704;28;20503;-76
2022/09/17 05:05:04;;;;;;;4.40;2.80;;;;;;;23.80;47.92;100529.31;2086205;28;20070;-76
2022/09/17 05:06:28;;;;;;;6.18;2.70;;;;;;;23.94;47.41;100531.44;2091882;28;20097;-76
2022/09/17 05:07:51;;;;;;;5.97;2.60;;;;;;;24.06;47.17;100514.72;2094542;28;20045;-76
2022/09/17 05:09:13;;;;;;;6.70;2.85;;;;;;;24.18;46.90;100520.44;2094284;28;20156;-75
2022/09/17 05:10:35;;;;;;;3.10;2.10;;;;;;;24.30;46.71;100516.34;2094220;28;20044;-76
2022/09/17 05:11:57;;;;;;;5.57;2.05;;;;;;;24.41;46.42;100522.16;2086191;28;20088;-76
2022/09/17 05:13:20;;;;;;;6.47;2.63;;;;;;;24.52;46.22;100513.56;2091828;28;20056;-76
2022/09/17 05:14:42;;;;;;;5.05;2.83;;;;;;;24.65;45.96;100512.03;2088439;28;20033;-76
2022/09/17 05:16:05;;;;;;;4.40;1.50;;;;;;;24.74;45.82;100518.84;2092053;28;20045;-75
2022/09/17 05:17:27;;;;;;;6.85;2.47;;;;;;;24.85;45.75;100513.81;2086236;28;20102;-76
2022/09/17 05:18:50;;;;;;;5.80;2.17;;;;;;;24.96;45.48;100516.91;2075093;28;20103;-76
2022/09/17 05:20:12;;;;;;;6.65;2.47;;;;;;;25.06;45.57;100520.94;2084110;28;20049;-76
2022/09/17 05:21:37;;;;;;;5.25;2.97;;;;;;;25.19;45.30;100523.91;2083379;28;20413;-75
2022/09/17 05:22:58;;;;;;;5.05;2.20;;;;;;;25.30;45.21;100532.38;2092215;28;20044;-76
2022/09/17 05:24:21;;;;;;;6.03;2.60;;;;;;;25.38;45.02;100530.19;2094515;28;20113;-76
2022/09/17 05:25:43;;;;;;;5.75;2.22;;;;;;;25.48;44.91;100531.47;2097010;28;20106;-76
2022/09/17 05:27:06;;;;;;;5.45;2.30;;;;;;;25.59;45.15;100530.97;2094309;28;20048;-76
2022/09/17 05:28:28;;;;;;;3.05;1.92;;;;;;;25.69;45.13;100518.72;2094258;28;20054;-76
2022/09/17 05:29:50;;;;;;;4.28;2.45;;;;;;;25.79;45.12;100529.03;2094332;28;20078;-75
2022/09/17 05:31:14;;;;;;;4.07;2.15;;;;;;;25.90;45.13;100520.34;2086017;28;20056;-75
2022/09/17 05:32:35;;;;;;;2.63;2.00;;;;;;;26.01;45.22;100522.47;2083846;28;20056;-76
2022/09/17 05:33:58;;;;;;;6.80;2.85;;;;;;;26.10;45.23;100520.19;2091587;28;20801;-75
2022/09/17 05:35:20;;;;;;;3.58;1.98;;;;;;;26.20;45.49;100524.16;2094293;28;20052;-76
2022/09/17 05:36:44;;;;;;;5.05;2.63;;;;;;;26.32;45.51;100524.50;2088807;28;20061;-76
2022/09/17 05:38:07;;;;;;;5.00;2.40;;;;;;;26.42;45.34;100525.75;2091890;28;20516;-76
2022/09/17 05:39:29;;;;;;;7.95;2.17;;;;;;;26.52;45.23;100521.56;2094504;28;20052;-76
2022/09/17 05:40:52;;;;;;;4.95;2.45;;;;;;;26.62;45.44;100516.56;2094357;28;20056;-76
2022/09/17 05:42:13;;;;;;;4.32;1.92;;;;;;;26.71;45.08;100514.22;2094181;28;20048;-76
2022/09/17 05:43:36;;;;;;;3.70;2.00;;;;;;;26.79;44.84;100511.94;2094372;28;20052;-76
2022/09/17 05:44:57;;;;;;;3.42;2.10;;;;;;;26.89;44.89;100509.66;2085888;28;20119;-76
2022/09/17 05:46:19;;;;;;;3.05;1.77;;;;;;;26.98;44.47;100507.28;2091521;28;20538;-76
2022/09/17 05:47:42;;;;;;;3.83;1.75;;;;;;;27.03;43.97;100509.75;2086152;28;20139;-76
2022/09/17 05:49:05;;;;;;;6.15;2.38;;;;;;;27.12;43.46;100502.91;2091409;28;20049;-75
2022/09/17 05:50:29;;;;;;;4.65;1.73;;;;;;;27.15;42.72;100500.91;2086072;28;20123;-76
2022/09/17 05:51:53;;;;;;;5.28;2.50;;;;;;;27.18;41.88;100506.16;2091526;28;20128;-74
2022/09/17 05:53:16;;;;;;;5.65;2.03;;;;;;;27.23;41.89;100514.03;2096744;28;20131;-73
2022/09/17 05:54:38;;;;;;;3.10;2.10;;;;;;;27.28;41.84;100512.81;2093995;28;20048;-73
2022/09/17 05:56:01;;;;;;;6.13;2.40;;;;;;;27.35;42.16;100513.31;2096345;28;20048;-73
2022/09/17 05:57:24;;;;;;;6.93;1.95;;;;;;;27.47;42.07;100501.75;2094197;28;20044;-76
2022/09/17 05:58:47;;;;;;;4.53;2.17;;;;;;;27.55;41.57;100520.34;2093879;28;20101;-76
2022/09/17 06:00:10;;;;;;;5.47;2.10;;;;;;;27.60;41.69;100524.53;2088422;28;20070;-76
2022/09/17 06:01:34;;;;;;;7.53;2.42;;;;;;;27.70;41.86;100531.16;2092076;28;20048;-76
2022/09/17 06:02:58;;;;;;;5.38;2.10;;;;;;;27.80;41.78;100519.75;2093696;28;20093;-76
2022/09/17 06:04:20;;;;;;;4.63;2.30;;;;;;;27.91;41.56;100525.41;2094015;28;20428;-75
2022/09/17 06:05:43;;;;;;;5.30;2.40;;;;;;;28.00;41.34;100512.19;2094157;28;20504;-75
2022/09/17 06:07:08;;;;;;;4.00;1.77;;;;;;;28.04;40.88;100515.56;2093964;28;20051;-76
2022/09/17 06:08:30;;;;;;;4.20;2.00;;;;;;;28.09;40.89;100522.44;2094141;28;20044;-75
2022/09/17 06:09:51;;;;;;;5.45;2.28;;;;;;;28.19;40.69;100522.81;2085428;28;20048;-76
2022/09/17 06:11:14;;;;;;;5.30;2.47;;;;;;;28.26;40.44;100526.91;2093978;28;20058;-78
2022/09/17 06:12:36;;;;;;;4.97;2.42;;;;;;;27.86;42.52;100517.56;2085732;28;20504;-79
2022/09/17 06:13:58;;;;;;;3.55;2.22;;;;;;;27.19;44.08;100523.28;2085633;28;20041;-80
2022/09/17 06:15:20;;;;;;;3.40;1.70;;;;;;;26.72;45.85;100506.94;2093822;28;20389;-80
2022/09/17 06:16:41;;;;;;;4.05;2.13;;;;;;;26.31;46.98;100525.47;2094072;28;20040;-80
2022/09/17 06:18:04;;;;;;;7.72;2.55;;;;;;;26.13;47.34;100522.72;2093649;28;20047;-81
2022/09/17 06:19:28;;;;;;;9.55;2.38;;;;;;;26.11;48.13;100521.06;2088222;28;20056;-82
2022/09/17 06:20:54;;;;;;;2.38;1.67;;;;;;;26.24;47.74;100516.78;2098065;28;20032;-78
2022/09/17 06:22:21;;;;;;;5.03;2.03;;;;;;;26.25;47.94;100523.09;2095459;28;20396;-81
2022/09/17 06:23:44;;;;;;;3.00;1.70;;;;;;;26.29;47.46;100517.41;2079577;28;20045;-82
2022/09/17 06:25:07;;;;;;;4.78;2.05;;;;;;;26.33;47.80;100516.28;2083221;28;20544;-75
2022/09/17 06:26:29;;;;;;;4.13;2.08;;;;;;;26.40;47.95;100522.25;2093345;28;20443;-75
2022/09/17 06:27:51;;;;;;;6.03;2.00;;;;;;;26.46;48.16;100524.63;2095528;28;20052;-76
2022/09/17 06:29:14;;;;;;;5.35;1.90;;;;;;;26.57;47.79;100519.53;2086967;28;20456;-75
2022/09/17 06:30:37;;;;;;;3.95;1.85;;;;;;;26.72;46.99;100517.78;2093191;28;20048;-76
2022/09/17 06:31:59;;;;;;;4.43;1.98;;;;;;;26.87;46.93;100520.53;2104862;28;20048;-76
2022/09/17 06:33:22;;;;;;;2.75;1.80;;;;;;;26.97;46.54;100520.94;2098842;28;20044;-76
2022/09/17 06:34:43;;;;;;;4.80;2.20;;;;;;;27.01;46.73;100524.34;2079205;28;20141;-77
2022/09/17 06:36:08;;;;;;;5.65;2.15;;;;;;;27.07;46.31;100519.44;2085390;28;20930;-74